Time;durP1;ratioP1;P1;durP2;ratioP2;P2;SDS_P1;SDS_P2;PMS_P1;PMS_P2;Temp;Humidity;BMP_temperature;BMP_pressure;BME280_temperature;BME280_humidity;BME280_pressure;Samples;Min_cycle;Max_cycle;Signal;HPM_P1;HPM_P2
2023/03/02 00:01:54;;;;;;;1999.90;999.90;;;1.40;99.90;;;;;;5015185;28;20029;-79
2023/03/02 00:04:26;;;;;;;1999.90;999.90;;;1.40;99.90;;;;;;4995928;28;20034;-70
2023/03/02 00:06:55;;;;;;;1999.90;999.90;;;1.40;99.90;;;;;;4995575;28;20044;-70
2023/03/02 00:09:21;;;;;;;1999.90;999.90;;;1.40;99.90;;;;;;4995789;28;20105;-70
2023/03/02 00:11:47;;;;;;;1999.90;999.90;;;1.40;99.90;;;;;;4995804;28;20114;-80
2023/03/02 00:14:12;;;;;;;1999.90;999.90;;;1.40;99.90;;;;;;4995692;28;20023;-80
2023/03/02 00:16:39;;;;;;;1999.90;999.90;;;1.30;99.90;;;;;;4995702;28;20034;-70
2023/03/02 00:19:04;;;;;;;1999.90;999.90;;;1.30;99.90;;;;;;5027332;28;20433;-70
2023/03/02 00:21:30;;;;;;;1999.90;999.90;;;1.30;99.90;;;;;;4995634;28;20077;-70
2023/03/02 00:23:56;;;;;;;1999.90;999.90;;;1.20;99.90;;;;;;4995578;28;20114;-80
2023/03/02 00:26:22;;;;;;;1999.90;999.90;;;1.20;99.90;;;;;;4995551;28;20445;-69
2023/03/02 00:28:47;;;;;;;1999.90;999.90;;;1.20;99.90;;;;;;4995323;28;20027;-69
2023/03/02 00:31:13;;;;;;;1999.90;999.90;;;1.20;99.90;;;;;;5027174;28;20034;-70
2023/03/02 00:33:39;;;;;;;1999.90;999.90;;;1.10;99.90;;;;;;4995541;28;20022;-69
2023/03/02 00:36:05;;;;;;;1999.90;999.90;;;1.10;99.90;;;;;;4995312;28;20030;-70
2023/03/02 00:38:30;;;;;;;1999.90;999.90;;;1.00;99.90;;;;;;4997107;28;20495;-79
2023/03/02 00:40:58;;;;;;;1999.90;999.90;;;1.10;99.90;;;;;;5033247;28;20036;-69
2023/03/02 00:43:26;;;;;;;1999.90;999.90;;;1.00;99.90;;;;;;5034565;28;20395;-79
2023/03/02 00:45:53;;;;;;;1999.90;999.90;;;1.00;99.90;;;;;;5026010;28;20448;-70
2023/03/02 00:48:19;;;;;;;1999.90;999.90;;;1.00;99.90;;;;;;5013686;28;20026;-69
2023/03/02 00:50:44;;;;;;;1999.90;999.90;;;1.00;99.90;;;;;;5014732;28;20021;-80
2023/03/02 00:53:10;;;;;;;1999.90;999.90;;;1.00;99.90;;;;;;5014743;28;20021;-79
2023/03/02 00:55:36;;;;;;;1999.90;999.90;;;1.00;99.90;;;;;;5014863;28;20098;-70
2023/03/02 00:58:03;;;;;;;1999.90;999.90;;;0.90;99.90;;;;;;5014487;28;20018;-69
2023/03/02 01:00:30;;;;;;;1999.90;999.90;;;0.90;99.90;;;;;;5014360;28;20028;-70
2023/03/02 01:02:56;;;;;;;1999.90;999.90;;;0.90;99.90;;;;;;5003990;28;20509;-80
2023/03/02 01:05:22;;;;;;;1999.90;999.90;;;0.90;99.90;;;;;;4994964;28;20027;-79
2023/03/02 01:07:47;;;;;;;1999.90;999.90;;;0.80;99.90;;;;;;5026450;28;20036;-70
2023/03/02 01:10:13;;;;;;;1999.90;999.90;;;0.80;99.90;;;;;;4994465;28;20058;-70
2023/03/02 01:12:39;;;;;;;1999.90;999.90;;;0.80;99.90;;;;;;4994562;28;20026;-70
2023/03/02 01:15:06;;;;;;;1999.90;999.90;;;0.70;99.90;;;;;;4994819;28;20030;-70
2023/03/02 01:17:32;;;;;;;1999.90;999.90;;;0.70;99.90;;;;;;4993995;28;20022;-69
2023/03/02 01:19:58;;;;;;;1999.90;999.90;;;0.60;99.90;;;;;;4994706;28;20085;-80
2023/03/02 01:22:25;;;;;;;1999.90;999.90;;;0.60;99.90;;;;;;4994502;28;20038;-70
2023/03/02 01:24:50;;;;;;;1999.90;999.90;;;0.50;99.90;;;;;;4994403;28;20029;-70
2023/03/02 01:27:16;;;;;;;1999.90;999.90;;;0.50;99.90;;;;;;4994523;28;20026;-70
2023/03/02 01:29:42;;;;;;;1999.90;999.90;;;0.50;99.90;;;;;;5025794;28;20095;-80
2023/03/02 01:32:08;;;;;;;1999.90;999.90;;;0.40;99.90;;;;;;4994348;28;20035;-79
2023/03/02 01:34:33;;;;;;;1999.90;999.90;;;0.40;99.90;;;;;;4994382;28;20458;-69
2023/03/02 01:36:59;;;;;;;1999.90;999.90;;;0.40;99.90;;;;;;4994193;28;20405;-70
2023/03/02 01:39:24;;;;;;;1999.90;999.90;;;0.40;99.90;;;;;;5010661;28;20014;-69
2023/03/02 01:41:52;;;;;;;1999.90;999.90;;;0.40;99.90;;;;;;5033507;28;20106;-80
2023/03/02 01:44:38;;;;;;;1999.90;999.90;;;0.40;99.90;;;;;;5033487;28;20037;-80
2023/03/02 01:47:12;;;;;;;1999.90;999.90;;;0.30;99.90;;;;;;5015196;28;20473;-70
2023/03/02 01:49:40;;;;;;;1999.90;999.90;;;0.30;99.90;;;;;;5013867;28;20060;-69
2023/03/02 01:52:08;;;;;;;1999.90;999.90;;;0.20;99.90;;;;;;5013515;28;20022;-70
2023/03/02 01:54:34;;;;;;;1999.90;999.90;;;0.20;99.90;;;;;;5013198;28;20030;-80
2023/03/02 01:57:02;;;;;;;1999.90;999.90;;;0.20;99.90;;;;;;5013409;28;20034;-80
2023/03/02 01:59:30;;;;;;;1999.90;999.90;;;0.10;99.90;;;;;;5013508;28;20152;-70
2023/03/02 02:01:59;;;;;;;1999.90;999.90;;;0.10;99.90;;;;;;5010999;28;20069;-69
2023/03/02 02:04:27;;;;;;;1999.90;999.90;;;0.10;99.90;;;;;;4993805;28;20489;-70
2023/03/02 02:06:58;;;;;;;1999.90;999.90;;;0.00;99.90;;;;;;4993599;28;20583;-70
2023/03/02 02:09:26;;;;;;;1999.90;999.90;;;0.00;99.90;;;;;;4993548;28;20113;-80
2023/03/02 02:11:52;;;;;;;1999.90;999.90;;;0.00;99.90;;;;;;4993422;28;20473;-79
2023/03/02 02:14:18;;;;;;;1999.90;999.90;;;0.00;99.90;;;;;;4993558;28;20019;-70
2023/03/02 02:16:43;;;;;;;1999.90;999.90;;;0.00;99.90;;;;;;4993477;28;20033;-70
2023/03/02 02:19:33;;;;;;;1999.90;999.90;;;0.00;99.90;;;;;;4993442;28;20181;-70
2023/03/02 02:21:58;;;;;;;1999.90;999.90;;;-0.10;99.90;;;;;;4993537;28;20023;-79
2023/03/02 02:24:32;;;;;;;1999.90;999.90;;;-0.10;99.90;;;;;;4993334;28;20089;-80
2023/03/02 02:26:58;;;;;;;1999.90;999.90;;;-0.10;99.90;;;;;;4993382;28;20022;-69
2023/03/02 02:29:29;;;;;;;1999.90;999.90;;;-0.10;99.90;;;;;;5024594;28;20031;-70
2023/03/02 02:32:16;;;;;;;1999.90;999.90;;;-0.10;99.90;;;;;;4993265;28;20065;-69
2023/03/02 02:35:03;;;;;;;1999.90;999.90;;;-0.10;99.90;;;;;;4993213;28;20022;-80
2023/03/02 02:37:37;;;;;;;1999.90;999.90;;;-0.20;99.90;;;;;;5024672;28;20066;-70
2023/03/02 02:40:09;;;;;;;1999.90;999.90;;;-0.20;99.90;;;;;;5019820;28;20025;-70
2023/03/02 02:42:42;;;;;;;1999.90;999.90;;;-0.20;99.90;;;;;;5032315;28;20017;-70
2023/03/02 02:45:17;;;;;;;1999.90;999.90;;;-0.30;99.90;;;;;;5030091;28;20029;-70
2023/03/02 02:47:42;;;;;;;1999.90;999.90;;;-0.30;99.90;;;;;;5012542;28;20060;-69
2023/03/02 02:50:20;;;;;;;1999.90;999.90;;;-0.30;99.90;;;;;;5012411;28;20109;-79
2023/03/02 02:52:54;;;;;;;1999.90;999.90;;;-0.30;99.90;;;;;;5012478;28;20105;-70
2023/03/02 02:55:22;;;;;;;1999.90;999.90;;;-0.30;99.90;;;;;;5012579;28;20085;-69
2023/03/02 02:57:53;;;;;;;1999.90;999.90;;;-0.30;99.90;;;;;;5013117;28;20368;-70
2023/03/02 03:00:21;;;;;;;1999.90;999.90;;;-0.40;99.90;;;;;;5012467;28;20515;-69
2023/03/02 03:02:59;;;;;;;1999.90;999.90;;;-0.30;99.90;;;;;;5003215;28;20392;-80
2023/03/02 03:05:24;;;;;;;1999.90;999.90;;;-0.30;99.90;;;;;;4991617;28;20443;-70
2023/03/02 03:07:50;;;;;;;1999.90;999.90;;;-0.40;99.90;;;;;;4992810;28;20034;-70
2023/03/02 03:10:24;;;;;;;1999.90;999.90;;;-0.40;99.90;;;;;;4992306;28;20066;-69
2023/03/02 03:12:50;;;;;;;1999.90;999.90;;;-0.40;99.90;;;;;;4992277;28;20034;-80
2023/03/02 03:15:16;;;;;;;1999.90;999.90;;;-0.40;99.90;;;;;;4992847;28;20029;-70
2023/03/02 03:17:56;;;;;;;1999.90;999.90;;;-0.40;99.90;;;;;;4992861;28;20023;-70
2023/03/02 03:20:24;;;;;;;1999.90;999.90;;;-0.40;99.90;;;;;;4992572;28;20026;-70
2023/03/02 03:22:52;;;;;;;1999.90;999.90;;;-0.40;99.90;;;;;;4991337;28;20125;-69
2023/03/02 03:25:19;;;;;;;1999.90;999.90;;;-0.40;99.90;;;;;;4992812;28;20019;-79
2023/03/02 03:27:45;;;;;;;1999.90;999.90;;;-0.50;99.90;;;;;;4992776;28;20509;-80
2023/03/02 03:30:12;;;;;;;1999.90;999.90;;;-0.50;99.90;;;;;;4992401;28;20026;-79
2023/03/02 03:32:38;;;;;;;1999.90;999.90;;;-0.50;99.90;;;;;;4992537;28;20077;-70
2023/03/02 03:35:07;;;;;;;1999.90;999.90;;;-0.50;99.90;;;;;;4992645;28;20027;-69
2023/03/02 03:37:34;;;;;;;1999.90;999.90;;;-0.50;99.90;;;;;;4992875;28;20026;-69
2023/03/02 03:39:59;;;;;;;1999.90;999.90;;;-0.50;99.90;;;;;;5018164;28;20044;-80
2023/03/02 03:42:25;;;;;;;1999.90;999.90;;;-0.50;99.90;;;;;;5031570;28;20033;-80
2023/03/02 03:44:50;;;;;;;1999.90;999.90;;;-0.60;99.90;;;;;;5031782;28;20033;-69
2023/03/02 03:47:16;;;;;;;1999.90;999.90;;;-0.50;99.90;;;;;;5011772;28;20053;-69
2023/03/02 03:49:42;;;;;;;1999.90;999.90;;;-0.60;99.90;;;;;;5010834;28;20042;-69
2023/03/02 03:52:07;;;;;;;1999.90;999.90;;;-0.60;99.90;;;;;;5011900;28;20030;-80
2023/03/02 03:54:33;;;;;;;1999.90;999.90;;;-0.60;99.90;;;;;;5011812;28;20065;-69
2023/03/02 03:56:59;;;;;;;1999.90;999.90;;;-0.60;99.90;;;;;;5011885;28;20099;-69
2023/03/02 03:59:25;;;;;;;1999.90;999.90;;;-0.60;99.90;;;;;;5011842;28;20168;-70
2023/03/02 04:01:56;;;;;;;1999.90;999.90;;;-0.70;99.90;;;;;;5011172;28;20081;-70
2023/03/02 04:04:29;;;;;;;1999.90;999.90;;;-0.70;99.90;;;;;;4991598;28;20065;-79
2023/03/02 04:06:56;;;;;;;1999.90;999.90;;;-0.70;99.90;;;;;;4992216;28;20106;-80
2023/03/02 04:09:22;;;;;;;1999.90;999.90;;;-0.70;99.90;;;;;;4992249;28;20037;-70
2023/03/02 04:11:50;;;;;;;1999.90;999.90;;;-0.60;99.90;;;;;;4992298;28;20446;-69
2023/03/02 04:14:17;;;;;;;1999.90;999.90;;;-0.70;99.90;;;;;;4992210;28;20080;-69
2023/03/02 04:16:43;;;;;;;1999.90;999.90;;;-0.70;99.90;;;;;;4991445;28;20477;-70
2023/03/02 04:19:10;;;;;;;1999.90;999.90;;;-0.70;99.90;;;;;;4992154;28;20034;-79
2023/03/02 04:21:38;;;;;;;1999.90;999.90;;;-0.70;99.90;;;;;;4992369;28;20018;-80
2023/03/02 04:24:05;;;;;;;1999.90;999.90;;;-0.70;99.90;;;;;;4992993;28;20035;-69
2023/03/02 04:26:31;;;;;;;1999.90;999.90;;;-0.70;99.90;;;;;;4995448;28;20018;-70
2023/03/02 04:28:56;;;;;;;1999.90;999.90;;;-0.70;99.90;;;;;;4995456;28;20054;-69
2023/03/02 04:31:22;;;;;;;1999.90;999.90;;;-0.70;99.90;;;;;;4995563;28;20558;-79
2023/03/02 04:33:47;;;;;;;1999.90;999.90;;;-0.70;99.90;;;;;;4995653;28;20065;-80
2023/03/02 04:36:13;;;;;;;1999.90;999.90;;;-0.80;99.90;;;;;;4995209;28;20397;-69
2023/03/02 04:38:39;;;;;;;1999.90;999.90;;;-0.80;99.90;;;;;;4999297;28;20125;-70
2023/03/02 04:41:05;;;;;;;1999.90;999.90;;;-0.80;99.90;;;;;;5034697;28;20025;-69
2023/03/02 04:43:31;;;;;;;1999.90;999.90;;;-0.80;99.90;;;;;;5034739;28;20056;-80
2023/03/02 04:45:57;;;;;;;1999.90;999.90;;;-0.80;99.90;;;;;;5025637;28;20501;-80
2023/03/02 04:48:23;;;;;;;1999.90;999.90;;;-0.80;99.90;;;;;;5014549;28;20034;-70
2023/03/02 04:50:49;;;;;;;1999.90;999.90;;;-0.80;99.90;;;;;;5014562;28;20022;-69
2023/03/02 04:53:15;;;;;;;1999.90;999.90;;;-0.80;99.90;;;;;;5014691;28;20073;-69
2023/03/02 04:55:41;;;;;;;1999.90;999.90;;;-0.90;99.90;;;;;;5014775;28;20041;-70
2023/03/02 04:58:07;;;;;;;1999.90;999.90;;;-0.90;99.90;;;;;;5014642;28;20108;-80
2023/03/02 05:00:34;;;;;;;1999.90;999.90;;;-0.90;99.90;;;;;;5014558;28;20029;-69
2023/03/02 05:03:01;;;;;;;1999.90;999.90;;;-0.90;99.90;;;;;;5004058;28;20046;-69
2023/03/02 05:05:27;;;;;;;1999.90;999.90;;;-0.90;99.90;;;;;;4994497;28;20026;-69
2023/03/02 05:07:53;;;;;;;1999.90;999.90;;;-0.90;99.90;;;;;;4994846;28;20018;-70
2023/03/02 05:10:20;;;;;;;1999.90;999.90;;;-1.00;99.90;;;;;;4994543;28;20054;-80
2023/03/02 05:13:01;;;;;;;1999.90;999.90;;;-0.90;99.90;;;;;;4994521;28;20535;-80
2023/03/02 05:15:36;;;;;;;1999.90;999.90;;;-0.90;99.90;;;;;;5009756;28;20049;-69
2023/03/02 05:18:05;;;;;;;1999.90;999.90;;;-0.90;99.90;;;;;;4994633;28;20109;-69
2023/03/02 05:20:30;;;;;;;1999.90;999.90;;;-0.90;99.90;;;;;;4994572;28;20109;-70
2023/03/02 05:22:59;;;;;;;1999.90;999.90;;;-0.90;99.90;;;;;;4994492;28;20097;-80
2023/03/02 05:25:27;;;;;;;1999.90;999.90;;;-0.90;99.90;;;;;;4994586;28;20037;-70
2023/03/02 05:27:53;;;;;;;1999.90;999.90;;;-0.90;99.90;;;;;;4994616;28;20026;-69
2023/03/02 05:30:19;;;;;;;1999.90;999.90;;;-0.90;99.90;;;;;;4994340;28;20033;-69
2023/03/02 05:32:45;;;;;;;1999.90;999.90;;;-1.00;99.90;;;;;;4994031;28;20029;-70
2023/03/02 05:35:11;;;;;;;1999.90;999.90;;;-1.00;99.90;;;;;;4993955;28;20027;-70
2023/03/02 05:37:43;;;;;;;1999.90;999.90;;;-0.90;99.90;;;;;;4994380;28;20441;-80
2023/03/02 05:40:12;;;;;;;1999.90;999.90;;;-1.00;99.90;;;;;;5022147;28;20056;-80
2023/03/02 05:42:38;;;;;;;1999.90;999.90;;;-1.00;99.90;;;;;;5032064;28;20027;-69
2023/03/02 05:45:06;;;;;;;1999.90;999.90;;;-1.00;99.90;;;;;;5031685;28;20040;-70
2023/03/02 05:47:31;;;;;;;1999.90;999.90;;;-1.00;99.90;;;;;;5013496;28;20041;-70
2023/03/02 05:49:58;;;;;;;1999.90;999.90;;;-1.00;99.90;;;;;;5013727;28;20509;-80
2023/03/02 05:52:24;;;;;;;1999.90;999.90;;;-1.00;99.90;;;;;;5013580;28;20072;-79
2023/03/02 05:54:49;;;;;;;1999.90;999.90;;;-1.00;99.90;;;;;;5013338;28;20071;-70
2023/03/02 05:57:15;;;;;;;1999.90;999.90;;;-1.00;99.90;;;;;;5012784;28;20018;-71
2023/03/02 05:59:40;;;;;;;1999.90;999.90;;;-1.10;99.90;;;;;;5011145;28;20428;-70
2023/03/02 06:02:06;;;;;;;1999.90;999.90;;;-1.10;99.90;;;;;;5009200;28;20063;-78
2023/03/02 06:04:32;;;;;;;1999.90;999.90;;;-1.10;99.90;;;;;;4993047;28;20026;-80
2023/03/02 06:06:57;;;;;;;1999.90;999.90;;;-1.10;99.90;;;;;;4993380;28;20057;-70
2023/03/02 06:09:23;;;;;;;1999.90;999.90;;;-1.10;99.90;;;;;;4993409;28;20084;-71
2023/03/02 06:11:49;;;;;;;1999.90;999.90;;;-1.10;99.90;;;;;;4993529;28;20033;-70
2023/03/02 06:14:14;;;;;;;1999.90;999.90;;;-1.10;99.90;;;;;;5007758;28;20049;-70
2023/03/02 06:16:40;;;;;;;1999.90;999.90;;;-1.10;99.90;;;;;;5012974;28;20037;-80
2023/03/02 06:19:05;;;;;;;1999.90;999.90;;;-1.20;99.90;;;;;;5012934;28;20408;-70
2023/03/02 06:21:31;;;;;;;1999.90;999.90;;;-1.20;99.90;;;;;;5013034;28;20034;-70
2023/03/02 06:23:57;;;;;;;1999.90;999.90;;;-1.20;99.90;;;;;;5013057;28;20040;-70
2023/03/02 06:26:22;;;;;;;1999.90;999.90;;;-1.20;99.90;;;;;;5012745;28;20030;-71
2023/03/02 06:28:48;;;;;;;1999.90;999.90;;;-1.20;99.90;;;;;;5012538;28;20084;-71
2023/03/02 06:31:13;;;;;;;1999.90;999.90;;;-1.20;99.90;;;;;;5015215;28;20033;-71
2023/03/02 06:33:39;;;;;;;1999.90;999.90;;;-1.20;99.90;;;;;;5012176;28;20014;-80
2023/03/02 06:36:05;;;;;;;1999.90;999.90;;;-1.20;99.90;;;;;;5010839;28;20444;-80
2023/03/02 06:38:30;;;;;;;1999.90;999.90;;;-1.20;99.90;;;;;;5009166;28;20505;-78
2023/03/02 06:40:56;;;;;;;1999.90;999.90;;;-1.20;99.90;;;;;;5002039;28;20029;-71
2023/03/02 06:43:22;;;;;;;1999.90;999.90;;;-1.20;99.90;;;;;;4996834;28;20027;-79
2023/03/02 06:45:49;;;;;;;1999.90;999.90;;;-1.20;99.90;;;;;;5000071;28;20030;-79
2023/03/02 06:48:15;;;;;;;1999.90;999.90;;;-1.20;99.90;;;;;;5002909;28;20050;-78
2023/03/02 06:50:41;;;;;;;1999.90;999.90;;;-1.20;99.90;;;;;;5011753;28;20148;-79
2023/03/02 06:53:06;;;;;;;1999.90;999.90;;;-1.20;99.90;;;;;;5011912;28;20485;-80
2023/03/02 06:55:32;;;;;;;1999.90;999.90;;;-1.20;99.90;;;;;;5012035;28;20026;-70
2023/03/02 06:57:57;;;;;;;1999.90;999.90;;;-1.20;99.90;;;;;;5012238;28;20181;-71
2023/03/02 07:00:25;;;;;;;1999.90;999.90;;;-1.20;99.90;;;;;;5011863;28;20092;-79
2023/03/02 07:02:51;;;;;;;1999.90;999.90;;;-1.20;99.90;;;;;;5017530;28;20029;-71
2023/03/02 07:05:18;;;;;;;1999.90;999.90;;;-1.20;99.90;;;;;;5024065;28;20092;-70
2023/03/02 07:07:43;;;;;;;1999.90;999.90;;;-1.10;99.90;;;;;;5029080;28;20029;-71
2023/03/02 07:10:12;;;;;;;1999.90;999.90;;;-1.10;99.90;;;;;;5009533;28;20022;-70
2023/03/02 07:12:38;;;;;;;1999.90;999.90;;;-1.10;99.90;;;;;;5009716;28;20421;-79
2023/03/02 07:15:09;;;;;;;1999.90;999.90;;;-1.10;99.90;;;;;;5010151;28;20033;-78
2023/03/02 07:17:35;;;;;;;1999.90;999.90;;;-1.00;99.90;;;;;;5011856;28;20405;-77
2023/03/02 07:20:04;;;;;;;1999.90;999.90;;;-1.00;99.90;;;;;;5004590;28;20046;-70
2023/03/02 07:22:29;;;;;;;1999.90;999.90;;;-1.00;99.90;;;;;;5011670;28;20103;-71
2023/03/02 07:24:55;;;;;;;1999.90;999.90;;;-1.00;99.90;;;;;;5011438;28;20061;-79
2023/03/02 07:27:20;;;;;;;1999.90;999.90;;;-0.90;99.90;;;;;;5021069;28;20045;-79
2023/03/02 07:29:46;;;;;;;1999.90;999.90;;;-0.80;99.90;;;;;;5010648;28;20072;-78
2023/03/02 07:32:12;;;;;;;1999.90;999.90;;;-0.70;99.90;;;;;;5011342;28;20065;-70
2023/03/02 07:34:37;;;;;;;1999.90;999.90;;;-0.70;99.90;;;;;;5008906;28;20037;-70
2023/03/02 07:37:03;;;;;;;1999.90;999.90;;;-0.60;99.90;;;;;;5004773;28;20404;-71
2023/03/02 07:39:29;;;;;;;1999.90;999.90;;;-0.60;99.90;;;;;;5012159;28;20477;-72
2023/03/02 07:41:59;;;;;;;1999.90;999.90;;;-0.50;99.90;;;;;;5006015;28;20038;-70
2023/03/02 07:44:26;;;;;;;1999.90;999.90;;;-0.40;99.90;;;;;;5009344;28;20060;-78
2023/03/02 07:46:52;;;;;;;1999.90;999.90;;;-0.30;99.90;;;;;;5009420;28;20398;-79
2023/03/02 07:49:18;;;;;;;1999.90;999.90;;;-0.20;99.90;;;;;;5009352;28;20114;-71
2023/03/02 07:51:44;;;;;;;1999.90;999.90;;;-0.10;99.90;;;;;;5010675;28;20113;-71
2023/03/02 07:54:09;;;;;;;1999.90;999.90;;;0.10;99.90;;;;;;5002776;28;20053;-78
2023/03/02 07:56:35;;;;;;;1999.90;999.90;;;0.30;99.90;;;;;;5046575;28;20088;-71
2023/03/02 07:59:01;;;;;;;1999.90;999.90;;;0.70;99.90;;;;;;5011626;28;20041;-71
2023/03/02 08:01:26;;;;;;;1999.90;999.90;;;1.70;99.90;;;;;;5015019;28;20029;-71
2023/03/02 08:03:52;;;;;;;1999.90;999.90;;;2.60;99.90;;;;;;5013395;28;20531;-80
2023/03/02 08:06:18;;;;;;;1999.90;999.90;;;3.20;99.90;;;;;;5012644;28;20140;-79
2023/03/02 08:08:44;;;;;;;1999.90;999.90;;;3.60;99.90;;;;;;5032355;28;20470;-79
2023/03/02 08:11:14;;;;;;;1999.90;999.90;;;4.20;99.90;;;;;;5006200;28;20029;-71
2023/03/02 08:13:41;;;;;;;1999.90;999.90;;;3.50;99.90;;;;;;5006656;28;20037;-72
2023/03/02 08:16:09;;;;;;;1999.90;999.90;;;2.90;99.90;;;;;;5014481;28;20112;-80
2023/03/02 08:18:35;;;;;;;1999.90;999.90;;;2.50;99.90;;;;;;5010823;28;20026;-79
2023/03/02 08:21:00;;;;;;;1999.90;999.90;;;2.20;99.90;;;;;;5008522;28;20034;-79
2023/03/02 08:23:26;;;;;;;1999.90;999.90;;;2.20;99.90;;;;;;5008533;28;20030;-81
2023/03/02 08:25:53;;;;;;;1999.90;999.90;;;2.30;99.90;;;;;;5012226;28;20128;-73
2023/03/02 08:28:20;;;;;;;1999.90;999.90;;;2.40;99.90;;;;;;5014640;28;20025;-73
2023/03/02 08:30:57;;;;;;;1999.90;999.90;;;2.50;99.90;;;;;;5011518;28;20708;-81
2023/03/02 08:33:24;;;;;;;1999.90;999.90;;;2.60;99.90;;;;;;5005927;28;20101;-79
2023/03/02 08:35:55;;;;;;;1999.90;999.90;;;3.20;99.90;;;;;;5011751;28;20084;-79
2023/03/02 08:38:22;;;;;;;1999.90;999.90;;;4.60;99.90;;;;;;5006541;28;20019;-81
2023/03/02 08:40:50;;;;;;;1999.90;999.90;;;6.30;99.90;;;;;;5015937;28;20381;-75
2023/03/02 08:43:16;;;;;;;1999.90;999.90;;;7.80;99.90;;;;;;5012574;28;20096;-84
2023/03/02 08:45:41;;;;;;;1999.90;999.90;;;9.10;99.90;;;;;;5011412;28;20113;-80
2023/03/02 08:48:07;;;;;;;1999.90;999.90;;;10.30;99.90;;;;;;5014068;28;20396;-81
2023/03/02 08:50:32;;;;;;;1999.90;999.90;;;10.30;99.90;;;;;;5012397;28;20041;-77
2023/03/02 08:52:58;;;;;;;1999.90;999.90;;;10.90;99.90;;;;;;5014929;28;20024;-77
2023/03/02 08:55:23;;;;;;;1999.90;999.90;;;11.70;99.20;;;;;;5013289;28;20117;-79
2023/03/02 08:57:49;;;;;;;1999.90;999.90;;;11.80;99.00;;;;;;5021822;28;20030;-83
2023/03/02 09:00:15;;;;;;;1999.90;999.90;;;12.10;98.70;;;;;;5031153;28;20108;-83
2023/03/02 09:02:41;;;;;;;1999.90;999.90;;;12.50;97.50;;;;;;5012824;28;20061;-84
2023/03/02 09:05:07;;;;;;;1999.90;999.90;;;12.90;96.80;;;;;;5024442;28;20061;-75
2023/03/02 09:07:33;;;;;;;1999.90;999.90;;;12.60;96.60;;;;;;5012211;28;20091;-75
2023/03/02 09:09:59;;;;;;;1999.90;999.90;;;13.10;96.00;;;;;;5021986;28;20041;-82
2023/03/02 09:12:24;;;;;;;1999.90;999.90;;;12.60;96.50;;;;;;5010843;28;20032;-82
2023/03/02 09:14:50;;;;;;;1999.90;999.90;;;12.40;96.50;;;;;;5019055;28;20485;-80
2023/03/02 09:17:16;;;;;;;1999.90;999.90;;;12.80;96.90;;;;;;5018431;28;20018;-81
2023/03/02 09:19:42;;;;;;;1999.90;999.90;;;13.10;95.70;;;;;;5027500;28;20065;-74
2023/03/02 09:22:08;;;;;;;1999.90;999.90;;;12.20;95.90;;;;;;5014873;28;20426;-74
2023/03/02 09:24:35;;;;;;;1999.90;999.90;;;12.10;96.70;;;;;;5011533;28;20509;-81
2023/03/02 09:27:01;;;;;;;1999.90;999.90;;;12.50;97.10;;;;;;5042166;28;20496;-75
2023/03/02 09:29:27;;;;;;;1999.90;999.90;;;12.90;96.20;;;;;;5011429;28;20026;-78
2023/03/02 09:31:53;;;;;;;1999.90;999.90;;;13.50;95.00;;;;;;5008545;28;20401;-74
2023/03/02 09:34:19;;;;;;;1999.90;999.90;;;13.30;95.00;;;;;;5009951;28;20097;-81
2023/03/02 09:36:46;;;;;;;1999.90;999.90;;;13.20;95.60;;;;;;5018526;28;20026;-81
2023/03/02 09:39:12;;;;;;;1999.90;999.90;;;13.20;95.50;;;;;;5014001;28;20029;-81
2023/03/02 09:42:25;;;;;;;1999.90;999.90;;;12.80;95.50;;;;;;5009181;28;20025;-82
2023/03/02 09:45:01;;;;;;;1999.90;999.90;;;12.70;96.40;;;;;;5019667;28;20059;-81
2023/03/02 09:47:45;;;;;;;1999.90;999.90;;;13.10;95.30;;;;;;5037103;28;20046;-74
2023/03/02 09:50:33;;;;;;;1999.90;999.90;;;12.30;95.90;;;;;;4994936;28;20061;-80
2023/03/02 09:53:10;;;;;;;1999.90;999.90;;;11.20;97.70;;;;;;5010626;28;20014;-74
2023/03/02 09:55:37;;;;;;;1999.90;999.90;;;10.10;99.80;;;;;;5030379;28;20474;-74
2023/03/02 09:58:07;;;;;;;1999.90;999.90;;;9.50;99.90;;;;;;5011760;28;20030;-74
2023/03/02 10:00:39;;;;;;;1999.90;999.90;;;9.00;99.90;;;;;;5000782;28;20145;-74
2023/03/02 10:03:10;;;;;;;1999.90;999.90;;;8.60;99.90;;;;;;5003639;28;20485;-74
2023/03/02 10:05:42;;;;;;;1999.90;999.90;;;8.30;99.90;;;;;;5010367;28;20041;-80
2023/03/02 10:08:23;;;;;;;1999.90;999.90;;;8.20;99.90;;;;;;5008557;28;20121;-74
2023/03/02 10:10:48;;;;;;;1999.90;999.90;;;7.90;99.90;;;;;;5003230;28;20116;-73
2023/03/02 10:13:41;;;;;;;1999.90;999.90;;;8.00;99.90;;;;;;5003140;28;20459;-73
2023/03/02 10:16:29;;;;;;;1999.90;999.90;;;8.00;99.90;;;;;;5007111;28;20026;-73
2023/03/02 10:18:57;;;;;;;1999.90;999.90;;;7.80;99.90;;;;;;5003143;28;20038;-80
2023/03/02 10:21:33;;;;;;;1999.90;999.90;;;7.80;99.90;;;;;;5005992;28;20040;-78
2023/03/02 10:24:23;;;;;;;1999.90;999.90;;;8.10;99.90;;;;;;5006650;28;20036;-74
2023/03/02 10:26:58;;;;;;;1999.90;999.90;;;8.20;99.90;;;;;;4996272;28;20034;-74
2023/03/02 10:29:35;;;;;;;1999.90;999.90;;;7.90;99.90;;;;;;5019035;28;20065;-79
2023/03/02 10:32:22;;;;;;;1999.90;999.90;;;8.20;99.90;;;;;;5001915;28;20528;-80
2023/03/02 10:34:50;;;;;;;1999.90;999.90;;;8.30;99.90;;;;;;5007422;28;20740;-74
2023/03/02 10:37:21;;;;;;;1999.90;999.90;;;8.20;99.90;;;;;;5008466;28;20029;-77
2023/03/02 10:39:48;;;;;;;1999.90;999.90;;;8.50;99.90;;;;;;5011452;28;20041;-74
2023/03/02 10:42:19;;;;;;;1999.90;999.90;;;8.70;99.90;;;;;;5014734;28;20030;-74
2023/03/02 10:44:51;;;;;;;1999.90;999.90;;;8.60;99.90;;;;;;5006507;28;20021;-78
2023/03/02 10:47:27;;;;;;;1999.90;999.90;;;8.70;99.90;;;;;;5008582;28;20045;-78
2023/03/02 10:49:56;;;;;;;1999.90;999.90;;;8.50;99.90;;;;;;5006598;28;20041;-74
2023/03/02 10:52:26;;;;;;;1999.90;999.90;;;8.90;99.90;;;;;;5010382;28;20041;-73
2023/03/02 10:55:11;;;;;;;1999.90;999.90;;;8.80;99.90;;;;;;5022455;28;20021;-78
2023/03/02 10:57:42;;;;;;;1999.90;999.90;;;8.90;99.90;;;;;;5013391;28;20103;-79
2023/03/02 11:00:23;;;;;;;1999.90;999.90;;;8.90;99.90;;;;;;5007222;28;20029;-79
2023/03/02 11:03:00;;;;;;;1999.90;999.90;;;8.90;99.90;;;;;;5001859;28;20034;-74
2023/03/02 11:05:30;;;;;;;1999.90;999.90;;;8.90;99.90;;;;;;5001782;28;20021;-79
2023/03/02 11:07:57;;;;;;;1999.90;999.90;;;9.10;99.90;;;;;;5036144;28;20041;-79
2023/03/02 11:10:30;;;;;;;1999.90;999.90;;;9.20;99.90;;;;;;5015289;28;20515;-74
2023/03/02 11:12:57;;;;;;;1999.90;999.90;;;9.20;99.90;;;;;;5019167;28;20026;-80
2023/03/02 11:15:32;;;;;;;1999.90;999.90;;;9.30;99.90;;;;;;5016318;28;20022;-74
2023/03/02 11:18:20;;;;;;;1999.90;999.90;;;9.50;99.90;;;;;;5021217;28;20116;-79
2023/03/02 11:20:49;;;;;;;1999.90;999.90;;;9.20;99.90;;;;;;5009024;28;20528;-74
2023/03/02 11:23:32;;;;;;;1999.90;999.90;;;9.20;99.90;;;;;;5004106;28;20022;-79
2023/03/02 11:26:05;;;;;;;1999.90;999.90;;;9.10;99.90;;;;;;5004169;28;20018;-79
2023/03/02 11:28:58;;;;;;;1999.90;999.90;;;9.20;99.90;;;;;;5007906;28;20605;-74
2023/03/02 11:31:36;;;;;;;1999.90;999.90;;;9.00;99.90;;;;;;5001448;28;20038;-80
2023/03/02 11:34:18;;;;;;;1999.90;999.90;;;9.10;99.90;;;;;;5011735;28;20029;-74
2023/03/02 11:36:44;;;;;;;1999.90;999.90;;;8.90;99.90;;;;;;4999989;28;20034;-78
2023/03/02 11:39:20;;;;;;;1999.90;999.90;;;9.30;99.90;;;;;;5010846;28;20543;-80
2023/03/02 11:41:46;;;;;;;1999.90;999.90;;;9.50;99.90;;;;;;5017438;28;20116;-74
2023/03/02 11:44:17;;;;;;;1999.90;999.90;;;9.60;99.90;;;;;;5013170;28;20105;-79
2023/03/02 11:46:50;;;;;;;1999.90;999.90;;;9.60;99.90;;;;;;5012921;28;20053;-79
2023/03/02 11:49:31;;;;;;;;;;;9.80;99.90;;;;;;5014923;28;20042;-74
2023/03/02 11:51:59;;;;;;;1999.90;999.90;;;9.80;99.90;;;;;;5000642;28;19960;-80
2023/03/02 11:54:47;;;;;;;1999.90;999.90;;;10.10;99.90;;;;;;5011327;28;20065;-74
2023/03/02 11:57:26;;;;;;;1999.90;999.90;;;9.60;99.90;;;;;;5014840;28;20040;-77
2023/03/02 11:59:53;;;;;;;1999.90;999.90;;;9.50;99.90;;;;;;5015898;28;20128;-80
2023/03/02 12:02:20;;;;;;;1999.90;999.90;;;9.60;99.90;;;;;;5014734;28;20042;-74
2023/03/02 12:04:46;;;;;;;1999.90;999.90;;;9.60;99.90;;;;;;5017446;28;20037;-79
2023/03/02 12:07:23;;;;;;;1999.90;999.90;;;10.00;99.90;;;;;;5025046;28;20041;-74
2023/03/02 12:09:59;;;;;;;1999.90;999.90;;;10.20;99.90;;;;;;5013969;28;20030;-79
2023/03/02 12:12:25;;;;;;;1999.90;999.90;;;10.30;99.90;;;;;;5004522;28;20092;-80